sensor_id;sensor_type;location;lat;lon;timestamp;pressure;altitude;pressure_sealevel;temperature;humidity
43155;BME280;34212;51.018;13.586;2024-01-30T00:01:28;99256.59;;;4.48;82.14
43155;BME280;34212;51.018;13.586;2024-01-30T00:06:30;99255.13;;;4.44;81.58
43155;BME280;34212;51.018;13.586;2024-01-30T00:11:32;99254.59;;;4.39;81.67
43155;BME280;34212;51.018;13.586;2024-01-30T00:16:34;99258.41;;;4.35;82.04
43155;BME280;34212;51.018;13.586;2024-01-30T00:21:35;99255.00;;;4.33;82.17
43155;BME280;34212;51.018;13.586;2024-01-30T00:26:37;99257.00;;;4.29;81.80
43155;BME280;34212;51.018;13.586;2024-01-30T00:31:38;99253.75;;;4.26;82.73
43155;BME280;34212;51.018;13.586;2024-01-30T00:36:42;99251.31;;;4.23;82.33
43155;BME280;34212;51.018;13.586;2024-01-30T00:41:44;99260.19;;;4.22;82.06
43155;BME280;34212;51.018;13.586;2024-01-30T00:46:45;99253.94;;;4.23;81.91
43155;BME280;34212;51.018;13.586;2024-01-30T00:51:47;99252.28;;;4.22;81.85
43155;BME280;34212;51.018;13.586;2024-01-30T00:56:49;99252.28;;;4.22;81.84
43155;BME280;34212;51.018;13.586;2024-01-30T01:01:50;99250.38;;;4.24;81.96
43155;BME280;34212;51.018;13.586;2024-01-30T01:06:52;99247.00;;;4.22;81.85
43155;BME280;34212;51.018;13.586;2024-01-30T01:11:54;99246.22;;;4.20;82.08
43155;BME280;34212;51.018;13.586;2024-01-30T01:16:56;99245.50;;;4.18;81.96
43155;BME280;34212;51.018;13.586;2024-01-30T01:21:57;99247.50;;;4.14;81.67
43155;BME280;34212;51.018;13.586;2024-01-30T01:26:59;99246.56;;;4.15;82.24
43155;BME280;34212;51.018;13.586;2024-01-30T01:32:00;99242.13;;;4.15;81.99
43155;BME280;34212;51.018;13.586;2024-01-30T01:37:02;99240.22;;;4.18;81.87
43155;BME280;34212;51.018;13.586;2024-01-30T01:42:04;99237.69;;;4.16;81.75
43155;BME280;34212;51.018;13.586;2024-01-30T01:47:05;99239.69;;;4.12;82.42
43155;BME280;34212;51.018;13.586;2024-01-30T01:52:07;99243.28;;;4.11;82.30
43155;BME280;34212;51.018;13.586;2024-01-30T01:57:08;99236.41;;;4.09;82.20
43155;BME280;34212;51.018;13.586;2024-01-30T02:02:11;99231.44;;;4.04;82.10
43155;BME280;34212;51.018;13.586;2024-01-30T02:07:14;99234.28;;;4.01;82.36
43155;BME280;34212;51.018;13.586;2024-01-30T02:12:16;99235.31;;;3.99;82.54
43155;BME280;34212;51.018;13.586;2024-01-30T02:17:17;99238.09;;;3.97;83.19
43155;BME280;34212;51.018;13.586;2024-01-30T02:22:20;99227.41;;;3.99;82.55
43155;BME280;34212;51.018;13.586;2024-01-30T02:27:21;99224.69;;;4.00;82.20
43155;BME280;34212;51.018;13.586;2024-01-30T02:32:23;99226.34;;;4.01;82.61
43155;BME280;34212;51.018;13.586;2024-01-30T02:37:24;99222.59;;;4.05;82.89
43155;BME280;34212;51.018;13.586;2024-01-30T02:42:26;99211.59;;;4.11;82.71
43155;BME280;34212;51.018;13.586;2024-01-30T02:47:27;99214.03;;;4.14;82.22
43155;BME280;34212;51.018;13.586;2024-01-30T02:52:29;99217.41;;;4.16;82.61
43155;BME280;34212;51.018;13.586;2024-01-30T02:57:30;99213.50;;;4.22;82.99
43155;BME280;34212;51.018;13.586;2024-01-30T03:02:32;99213.50;;;4.22;83.02
43155;BME280;34212;51.018;13.586;2024-01-30T03:07:34;99214.25;;;4.24;82.76
43155;BME280;34212;51.018;13.586;2024-01-30T03:12:36;99207.03;;;4.26;82.46
43155;BME280;34212;51.018;13.586;2024-01-30T03:17:37;99200.84;;;4.27;83.14
43155;BME280;34212;51.018;13.586;2024-01-30T03:22:39;99200.28;;;4.22;83.30
43155;BME280;34212;51.018;13.586;2024-01-30T03:27:40;99201.56;;;4.16;82.96
43155;BME280;34212;51.018;13.586;2024-01-30T03:32:42;99199.25;;;4.12;83.20
43155;BME280;34212;51.018;13.586;2024-01-30T03:37:44;99207.25;;;4.10;83.37
43155;BME280;34212;51.018;13.586;2024-01-30T03:42:45;99204.19;;;4.04;82.83
43155;BME280;34212;51.018;13.586;2024-01-30T03:47:47;99197.31;;;4.01;83.15
43155;BME280;34212;51.018;13.586;2024-01-30T03:52:48;99197.94;;;4.05;82.62
43155;BME280;34212;51.018;13.586;2024-01-30T03:57:50;99202.19;;;4.07;82.75
43155;BME280;34212;51.018;13.586;2024-01-30T04:02:51;99205.38;;;4.00;82.71
43155;BME280;34212;51.018;13.586;2024-01-30T04:07:53;99201.13;;;3.97;83.00
43155;BME280;34212;51.018;13.586;2024-01-30T04:12:55;99202.09;;;3.96;82.75
43155;BME280;34212;51.018;13.586;2024-01-30T04:17:59;99195.94;;;3.96;82.52
43155;BME280;34212;51.018;13.586;2024-01-30T04:23:01;99197.09;;;3.91;82.45
43155;BME280;34212;51.018;13.586;2024-01-30T04:28:03;99194.78;;;3.87;82.10
43155;BME280;34212;51.018;13.586;2024-01-30T04:33:05;99188.97;;;3.82;82.10
43155;BME280;34212;51.018;13.586;2024-01-30T04:38:06;99188.22;;;3.80;82.11
43155;BME280;34212;51.018;13.586;2024-01-30T04:43:08;99190.13;;;3.78;81.82
43155;BME280;34212;51.018;13.586;2024-01-30T04:48:09;99185.91;;;3.75;82.59
43155;BME280;34212;51.018;13.586;2024-01-30T04:53:11;99184.22;;;3.74;82.15
43155;BME280;34212;51.018;13.586;2024-01-30T04:58:12;99184.31;;;3.73;82.23
43155;BME280;34212;51.018;13.586;2024-01-30T05:03:14;99184.50;;;3.69;82.20
43155;BME280;34212;51.018;13.586;2024-01-30T05:08:15;99183.75;;;3.67;82.18
43155;BME280;34212;51.018;13.586;2024-01-30T05:13:17;99186.50;;;3.66;82.21
43155;BME280;34212;51.018;13.586;2024-01-30T05:18:18;99187.56;;;3.63;81.93
43155;BME280;34212;51.018;13.586;2024-01-30T05:23:20;99175.31;;;3.62;82.14
43155;BME280;34212;51.018;13.586;2024-01-30T05:28:21;99172.78;;;3.61;82.29
43155;BME280;34212;51.018;13.586;2024-01-30T05:33:23;99178.16;;;3.59;82.11
43155;BME280;34212;51.018;13.586;2024-01-30T05:38:25;99182.69;;;3.57;82.35
43155;BME280;34212;51.018;13.586;2024-01-30T05:43:27;99176.97;;;3.51;82.28
43155;BME280;34212;51.018;13.586;2024-01-30T05:48:29;99174.47;;;3.49;82.56
43155;BME280;34212;51.018;13.586;2024-01-30T05:53:30;99171.28;;;3.44;82.05
43155;BME280;34212;51.018;13.586;2024-01-30T05:58:32;99175.72;;;3.43;82.30
43155;BME280;34212;51.018;13.586;2024-01-30T06:03:33;99173.16;;;3.42;82.27
43155;BME280;34212;51.018;13.586;2024-01-30T06:08:35;99172.44;;;3.40;82.31
43155;BME280;34212;51.018;13.586;2024-01-30T06:13:36;99178.63;;;3.39;82.00
43155;BME280;34212;51.018;13.586;2024-01-30T06:18:38;99171.69;;;3.38;82.52
43155;BME280;34212;51.018;13.586;2024-01-30T06:23:40;99163.84;;;3.36;82.27
43155;BME280;34212;51.018;13.586;2024-01-30T06:28:41;99170.09;;;3.35;81.92
43155;BME280;34212;51.018;13.586;2024-01-30T06:33:43;99167.44;;;3.35;82.03
43155;BME280;34212;51.018;13.586;2024-01-30T06:38:44;99164.06;;;3.33;82.29
43155;BME280;34212;51.018;13.586;2024-01-30T06:43:46;99169.31;;;3.33;82.44
43155;BME280;34212;51.018;13.586;2024-01-30T06:48:47;99173.75;;;3.33;82.58
43155;BME280;34212;51.018;13.586;2024-01-30T06:53:49;99177.16;;;3.35;83.29
43155;BME280;34212;51.018;13.586;2024-01-30T06:58:52;99176.00;;;3.39;83.09
43155;BME280;34212;51.018;13.586;2024-01-30T07:03:53;99168.84;;;3.41;82.68
43155;BME280;34212;51.018;13.586;2024-01-30T07:08:55;99169.38;;;3.46;82.85
43155;BME280;34212;51.018;13.586;2024-01-30T07:13:56;99176.03;;;3.52;83.12
43155;BME280;34212;51.018;13.586;2024-01-30T07:18:58;99179.13;;;3.58;82.98
43155;BME280;34212;51.018;13.586;2024-01-30T07:24:00;99173.41;;;3.64;83.07
43155;BME280;34212;51.018;13.586;2024-01-30T09:43:48;99188.78;;;6.28;87.63
43155;BME280;34212;51.018;13.586;2024-01-30T09:48:50;99194.34;;;6.36;87.54
43155;BME280;34212;51.018;13.586;2024-01-30T09:53:53;99191.81;;;6.46;87.88
43155;BME280;34212;51.018;13.586;2024-01-30T09:58:55;99183.00;;;6.57;87.98
43155;BME280;34212;51.018;13.586;2024-01-30T10:03:57;99180.34;;;6.68;88.04
43155;BME280;34212;51.018;13.586;2024-01-30T10:08:58;99179.38;;;6.80;87.99
43155;BME280;34212;51.018;13.586;2024-01-30T10:14:00;99180.06;;;6.93;87.71
43155;BME280;34212;51.018;13.586;2024-01-30T10:19:01;99171.72;;;7.09;87.85
43155;BME280;34212;51.018;13.586;2024-01-30T10:24:04;99166.59;;;7.29;87.75
43155;BME280;34212;51.018;13.586;2024-01-30T10:29:06;99162.41;;;7.47;88.11
43155;BME280;34212;51.018;13.586;2024-01-30T10:34:07;99157.66;;;7.62;88.02
43155;BME280;34212;51.018;13.586;2024-01-30T10:39:23;99151.06;;;7.77;88.00
43155;BME280;34212;51.018;13.586;2024-01-30T10:44:26;99147.38;;;7.90;86.98
43155;BME280;34212;51.018;13.586;2024-01-30T10:49:31;99139.47;;;7.99;87.67
43155;BME280;34212;51.018;13.586;2024-01-30T10:54:33;99131.53;;;8.09;87.80
43155;BME280;34212;51.018;13.586;2024-01-30T10:59:36;99131.47;;;8.20;87.30
43155;BME280;34212;51.018;13.586;2024-01-30T11:04:41;99120.47;;;8.34;87.35
43155;BME280;34212;51.018;13.586;2024-01-30T11:09:53;99113.41;;;8.45;86.69
43155;BME280;34212;51.018;13.586;2024-01-30T11:15:21;99114.56;;;8.52;86.67
43155;BME280;34212;51.018;13.586;2024-01-30T11:20:26;99113.19;;;8.58;86.47
43155;BME280;34212;51.018;13.586;2024-01-30T11:25:28;99105.34;;;8.66;86.49
43155;BME280;34212;51.018;13.586;2024-01-30T11:30:32;99111.53;;;8.66;86.34
43155;BME280;34212;51.018;13.586;2024-01-30T11:35:41;99107.88;;;8.67;85.84
43155;BME280;34212;51.018;13.586;2024-01-30T11:40:43;99112.50;;;8.65;85.65
43155;BME280;34212;51.018;13.586;2024-01-30T11:45:45;99110.94;;;8.63;86.03
43155;BME280;34212;51.018;13.586;2024-01-30T11:50:48;99097.53;;;8.64;85.44
43155;BME280;34212;51.018;13.586;2024-01-30T11:55:50;99077.38;;;8.71;85.96
43155;BME280;34212;51.018;13.586;2024-01-30T12:00:54;99084.13;;;8.75;86.02
43155;BME280;34212;51.018;13.586;2024-01-30T12:06:03;99082.97;;;8.78;85.27
43155;BME280;34212;51.018;13.586;2024-01-30T12:11:06;99078.38;;;8.80;85.26
43155;BME280;34212;51.018;13.586;2024-01-30T14:19:54;99027.81;;;8.70;83.96
43155;BME280;34212;51.018;13.586;2024-01-30T15:42:05;99026.88;;;7.18;82.08
43155;BME280;34212;51.018;13.586;2024-01-30T15:47:08;99036.31;;;7.11;82.49
43155;BME280;34212;51.018;13.586;2024-01-30T15:52:09;99033.09;;;7.07;82.34
43155;BME280;34212;51.018;13.586;2024-01-30T15:57:30;99047.28;;;7.06;82.61
43155;BME280;34212;51.018;13.586;2024-01-30T16:02:34;99036.94;;;7.03;83.47
43155;BME280;34212;51.018;13.586;2024-01-30T16:07:38;99045.97;;;7.01;82.79
43155;BME280;34212;51.018;13.586;2024-01-30T16:12:41;99042.06;;;6.95;82.23
43155;BME280;34212;51.018;13.586;2024-01-30T16:17:47;99044.47;;;6.87;82.12
43155;BME280;34212;51.018;13.586;2024-01-30T16:22:49;99046.06;;;6.78;81.40
43155;BME280;34212;51.018;13.586;2024-01-30T16:27:58;99048.78;;;6.67;81.52
43155;BME280;34212;51.018;13.586;2024-01-30T16:33:11;99048.28;;;6.62;81.30
43155;BME280;34212;51.018;13.586;2024-01-30T16:38:14;99051.94;;;6.61;81.88
43155;BME280;34212;51.018;13.586;2024-01-30T16:43:15;99055.06;;;6.55;81.79
43155;BME280;34212;51.018;13.586;2024-01-30T16:48:17;99058.66;;;6.54;81.29
43155;BME280;34212;51.018;13.586;2024-01-30T16:53:22;99062.28;;;6.53;81.44
43155;BME280;34212;51.018;13.586;2024-01-30T16:58:24;99066.41;;;6.45;80.80
43155;BME280;34212;51.018;13.586;2024-01-30T17:03:26;99068.09;;;6.35;80.74
43155;BME280;34212;51.018;13.586;2024-01-30T17:08:27;99066.19;;;6.15;81.12
43155;BME280;34212;51.018;13.586;2024-01-30T17:13:29;99074.88;;;6.06;81.38
43155;BME280;34212;51.018;13.586;2024-01-30T17:18:31;99069.56;;;6.06;81.48
43155;BME280;34212;51.018;13.586;2024-01-30T17:23:32;99060.66;;;6.07;81.00
43155;BME280;34212;51.018;13.586;2024-01-30T17:28:35;99065.25;;;6.05;80.87
43155;BME280;34212;51.018;13.586;2024-01-30T17:33:37;99057.53;;;6.01;81.15
43155;BME280;34212;51.018;13.586;2024-01-30T17:38:39;99067.16;;;6.03;81.17
43155;BME280;34212;51.018;13.586;2024-01-30T17:43:41;99067.91;;;6.05;80.67
43155;BME280;34212;51.018;13.586;2024-01-30T17:48:42;99066.44;;;6.00;80.63
43155;BME280;34212;51.018;13.586;2024-01-30T17:53:47;99069.56;;;5.94;80.93
43155;BME280;34212;51.018;13.586;2024-01-30T18:05:44;99083.94;;;5.79;80.69
43155;BME280;34212;51.018;13.586;2024-01-30T18:10:46;99082.50;;;5.75;80.81
43155;BME280;34212;51.018;13.586;2024-01-30T18:15:47;99083.56;;;5.72;80.68
43155;BME280;34212;51.018;13.586;2024-01-30T18:20:49;99077.09;;;5.65;80.62
43155;BME280;34212;51.018;13.586;2024-01-30T18:25:50;99081.53;;;5.65;80.76
43155;BME280;34212;51.018;13.586;2024-01-30T18:31:00;99081.78;;;5.62;80.59
43155;BME280;34212;51.018;13.586;2024-01-30T18:36:02;99084.75;;;5.57;80.85
43155;BME280;34212;51.018;13.586;2024-01-30T18:41:49;99100.03;;;5.53;81.13
43155;BME280;34212;51.018;13.586;2024-01-30T18:46:51;99096.44;;;5.54;81.01
43155;BME280;34212;51.018;13.586;2024-01-30T18:51:54;99091.63;;;5.60;81.02
43155;BME280;34212;51.018;13.586;2024-01-30T18:56:56;99088.50;;;5.66;80.97
43155;BME280;34212;51.018;13.586;2024-01-30T19:01:58;99089.47;;;5.65;80.94
43155;BME280;34212;51.018;13.586;2024-01-30T19:07:00;99091.28;;;5.64;81.24
43155;BME280;34212;51.018;13.586;2024-01-30T19:12:01;99090.41;;;5.64;81.47
43155;BME280;34212;51.018;13.586;2024-01-30T19:18:18;99100.75;;;5.67;81.98
43155;BME280;34212;51.018;13.586;2024-01-30T19:23:19;99105.59;;;5.73;81.64
43155;BME280;34212;51.018;13.586;2024-01-30T19:28:26;99099.13;;;5.77;81.07
43155;BME280;34212;51.018;13.586;2024-01-30T19:33:30;99103.69;;;5.75;81.15
43155;BME280;34212;51.018;13.586;2024-01-30T19:38:32;99110.66;;;5.76;81.81
43155;BME280;34212;51.018;13.586;2024-01-30T19:43:33;99120.66;;;5.84;82.22
43155;BME280;34212;51.018;13.586;2024-01-30T19:48:35;99122.00;;;5.89;81.91
43155;BME280;34212;51.018;13.586;2024-01-30T19:53:37;99131.19;;;5.96;82.34
43155;BME280;34212;51.018;13.586;2024-01-30T19:58:40;99130.72;;;6.03;82.25
43155;BME280;34212;51.018;13.586;2024-01-30T20:03:42;99129.28;;;6.10;82.71
43155;BME280;34212;51.018;13.586;2024-01-30T20:08:43;99139.50;;;6.25;82.96
43155;BME280;34212;51.018;13.586;2024-01-30T20:13:45;99138.91;;;6.44;83.92
43155;BME280;34212;51.018;13.586;2024-01-30T20:18:47;99155.28;;;6.72;84.17
43155;BME280;34212;51.018;13.586;2024-01-30T20:23:49;99143.75;;;7.05;85.70
43155;BME280;34212;51.018;13.586;2024-01-30T20:28:51;99143.06;;;7.35;85.42
43155;BME280;34212;51.018;13.586;2024-01-30T20:33:55;99155.84;;;7.62;85.88
43155;BME280;34212;51.018;13.586;2024-01-30T20:38:57;99146.31;;;7.81;85.91
43155;BME280;34212;51.018;13.586;2024-01-30T20:43:59;99155.66;;;7.96;85.65
43155;BME280;34212;51.018;13.586;2024-01-30T20:49:00;99159.34;;;8.05;86.02
43155;BME280;34212;51.018;13.586;2024-01-30T20:54:02;99155.66;;;8.17;86.82
43155;BME280;34212;51.018;13.586;2024-01-30T20:59:04;99152.19;;;8.26;86.42
43155;BME280;34212;51.018;13.586;2024-01-30T21:04:06;99157.00;;;8.32;86.34
43155;BME280;34212;51.018;13.586;2024-01-30T21:09:08;99150.41;;;8.37;85.72
43155;BME280;34212;51.018;13.586;2024-01-30T21:14:09;99160.97;;;8.38;85.83
43155;BME280;34212;51.018;13.586;2024-01-30T21:19:14;99162.50;;;8.41;86.23
43155;BME280;34212;51.018;13.586;2024-01-30T21:24:16;99165.88;;;8.43;85.94
43155;BME280;34212;51.018;13.586;2024-01-30T21:29:17;99162.09;;;8.45;85.92
43155;BME280;34212;51.018;13.586;2024-01-30T21:34:19;99166.31;;;8.48;86.79
43155;BME280;34212;51.018;13.586;2024-01-30T21:39:21;99166.06;;;8.51;86.40
43155;BME280;34212;51.018;13.586;2024-01-30T21:44:22;99165.78;;;8.54;86.23
43155;BME280;34212;51.018;13.586;2024-01-30T21:49:24;99180.50;;;8.58;85.80
43155;BME280;34212;51.018;13.586;2024-01-30T21:54:25;99174.19;;;8.59;85.82
43155;BME280;34212;51.018;13.586;2024-01-30T21:59:27;99180.94;;;8.63;86.09
43155;BME280;34212;51.018;13.586;2024-01-30T22:04:28;99181.63;;;8.65;86.34
43155;BME280;34212;51.018;13.586;2024-01-30T22:09:30;99183.19;;;8.68;86.09
43155;BME280;34212;51.018;13.586;2024-01-30T22:14:32;99182.91;;;8.71;85.95
43155;BME280;34212;51.018;13.586;2024-01-30T22:19:36;99183.63;;;8.73;85.58
43155;BME280;34212;51.018;13.586;2024-01-30T22:24:38;99179.28;;;8.72;85.34
43155;BME280;34212;51.018;13.586;2024-01-30T22:29:40;99183.75;;;8.71;85.29
43155;BME280;34212;51.018;13.586;2024-01-30T22:34:42;99187.41;;;8.70;85.15
43155;BME280;34212;51.018;13.586;2024-01-30T22:39:44;99196.63;;;8.66;85.68
43155;BME280;34212;51.018;13.586;2024-01-30T22:44:46;99200.66;;;8.61;85.24
43155;BME280;34212;51.018;13.586;2024-01-30T22:49:47;99206.63;;;8.53;85.51
43155;BME280;34212;51.018;13.586;2024-01-30T22:54:49;99210.94;;;8.44;85.04
43155;BME280;34212;51.018;13.586;2024-01-30T22:59:51;99211.56;;;8.37;85.46
43155;BME280;34212;51.018;13.586;2024-01-30T23:04:52;99208.91;;;8.37;85.33
43155;BME280;34212;51.018;13.586;2024-01-30T23:09:54;99206.16;;;8.38;85.17
43155;BME280;34212;51.018;13.586;2024-01-30T23:14:55;99208.56;;;8.41;85.25
43155;BME280;34212;51.018;13.586;2024-01-30T23:19:58;99210.22;;;8.42;86.53
43155;BME280;34212;51.018;13.586;2024-01-30T23:25:00;99213.59;;;8.44;86.13
43155;BME280;34212;51.018;13.586;2024-01-30T23:30:02;99210.28;;;8.52;85.28
43155;BME280;34212;51.018;13.586;2024-01-30T23:35:04;99202.75;;;8.57;85.48
43155;BME280;34212;51.018;13.586;2024-01-30T23:40:15;99214.81;;;8.61;85.43
43155;BME280;34212;51.018;13.586;2024-01-30T23:45:17;99215.25;;;8.66;85.49
43155;BME280;34212;51.018;13.586;2024-01-30T23:50:18;99209.78;;;8.68;85.81
43155;BME280;34212;51.018;13.586;2024-01-30T23:55:20;99211.47;;;8.69;85.50
